sensor_id;sensor_type;location;lat;lon;timestamp;temperature;humidity
21832;DHT22;11078;49.872;6.188;2022-08-01T00:01:34;19.50;6.50
21832;DHT22;11078;49.872;6.188;2022-08-01T00:04:01;19.50;6.60
21832;DHT22;11078;49.872;6.188;2022-08-01T00:06:27;19.50;6.60
21832;DHT22;11078;49.872;6.188;2022-08-01T00:08:53;19.50;6.70
21832;DHT22;11078;49.872;6.188;2022-08-01T00:11:20;19.50;6.80
21832;DHT22;11078;49.872;6.188;2022-08-01T00:13:46;19.50;7.40
21832;DHT22;11078;49.872;6.188;2022-08-01T00:16:12;19.40;6.90
21832;DHT22;11078;49.872;6.188;2022-08-01T00:18:38;19.40;7.10
21832;DHT22;11078;49.872;6.188;2022-08-01T00:21:05;19.40;7.10
21832;DHT22;11078;49.872;6.188;2022-08-01T00:23:31;19.30;7.20
21832;DHT22;11078;49.872;6.188;2022-08-01T00:25:57;19.30;7.30
21832;DHT22;11078;49.872;6.188;2022-08-01T00:28:23;19.30;7.40
21832;DHT22;11078;49.872;6.188;2022-08-01T00:30:49;19.30;7.40
21832;DHT22;11078;49.872;6.188;2022-08-01T00:33:15;19.20;7.50
21832;DHT22;11078;49.872;6.188;2022-08-01T00:35:41;19.20;7.60
21832;DHT22;11078;49.872;6.188;2022-08-01T00:38:07;19.10;7.60
21832;DHT22;11078;49.872;6.188;2022-08-01T00:40:33;19.10;7.80
21832;DHT22;11078;49.872;6.188;2022-08-01T00:42:59;19.10;7.90
21832;DHT22;11078;49.872;6.188;2022-08-01T00:45:25;19.00;7.90
21832;DHT22;11078;49.872;6.188;2022-08-01T00:47:51;19.00;8.00
21832;DHT22;11078;49.872;6.188;2022-08-01T00:50:17;19.00;8.00
21832;DHT22;11078;49.872;6.188;2022-08-01T00:52:43;18.90;8.10
21832;DHT22;11078;49.872;6.188;2022-08-01T00:55:10;18.90;8.20
21832;DHT22;11078;49.872;6.188;2022-08-01T00:57:38;18.90;8.20
21832;DHT22;11078;49.872;6.188;2022-08-01T01:00:06;18.90;8.20
21832;DHT22;11078;49.872;6.188;2022-08-01T01:02:33;18.80;8.20
21832;DHT22;11078;49.872;6.188;2022-08-01T01:05:00;18.80;8.30
21832;DHT22;11078;49.872;6.188;2022-08-01T01:07:48;18.70;8.30
21832;DHT22;11078;49.872;6.188;2022-08-01T01:10:32;18.70;10.70
21832;DHT22;11078;49.872;6.188;2022-08-01T01:13:06;18.60;10.80
21832;DHT22;11078;49.872;6.188;2022-08-01T01:15:40;18.60;9.20
21832;DHT22;11078;49.872;6.188;2022-08-01T01:18:14;18.60;9.30
21832;DHT22;11078;49.872;6.188;2022-08-01T01:20:45;18.50;9.70
21832;DHT22;11078;49.872;6.188;2022-08-01T01:29:08;18.40;11.10
21832;DHT22;11078;49.872;6.188;2022-08-01T01:31:42;18.40;9.40
21832;DHT22;11078;49.872;6.188;2022-08-01T01:34:13;18.40;9.60
21832;DHT22;11078;49.872;6.188;2022-08-01T01:36:40;18.30;9.30
21832;DHT22;11078;49.872;6.188;2022-08-01T01:39:08;18.30;8.90
21832;DHT22;11078;49.872;6.188;2022-08-01T01:41:36;18.20;8.80
21832;DHT22;11078;49.872;6.188;2022-08-01T01:44:04;18.20;9.10
21832;DHT22;11078;49.872;6.188;2022-08-01T01:46:31;18.10;9.10
21832;DHT22;11078;49.872;6.188;2022-08-01T01:48:58;18.10;9.70
21832;DHT22;11078;49.872;6.188;2022-08-01T01:51:27;18.10;9.20
21832;DHT22;11078;49.872;6.188;2022-08-01T01:53:55;18.00;9.50
21832;DHT22;11078;49.872;6.188;2022-08-01T01:56:23;18.00;9.40
21832;DHT22;11078;49.872;6.188;2022-08-01T01:58:55;18.00;9.50
21832;DHT22;11078;49.872;6.188;2022-08-01T02:01:24;18.00;10.10
21832;DHT22;11078;49.872;6.188;2022-08-01T02:03:52;17.90;9.90
21832;DHT22;11078;49.872;6.188;2022-08-01T02:06:19;17.90;9.60
21832;DHT22;11078;49.872;6.188;2022-08-01T02:08:47;17.80;9.60
21832;DHT22;11078;49.872;6.188;2022-08-01T02:11:13;17.80;9.80
21832;DHT22;11078;49.872;6.188;2022-08-01T02:13:58;17.80;9.90
21832;DHT22;11078;49.872;6.188;2022-08-01T02:16:28;17.80;11.90
21832;DHT22;11078;49.872;6.188;2022-08-01T02:18:54;17.70;10.30
21832;DHT22;11078;49.872;6.188;2022-08-01T02:21:28;17.70;10.10
21832;DHT22;11078;49.872;6.188;2022-08-01T02:26:45;17.60;10.90
21832;DHT22;11078;49.872;6.188;2022-08-01T02:29:17;17.70;10.70
21832;DHT22;11078;49.872;6.188;2022-08-01T02:31:45;17.50;10.70
21832;DHT22;11078;49.872;6.188;2022-08-01T02:34:16;17.60;10.30
21832;DHT22;11078;49.872;6.188;2022-08-01T02:36:44;17.50;10.70
21832;DHT22;11078;49.872;6.188;2022-08-01T02:39:13;17.50;10.60
21832;DHT22;11078;49.872;6.188;2022-08-01T02:41:42;17.50;10.70
21832;DHT22;11078;49.872;6.188;2022-08-01T02:44:12;17.40;10.70
21832;DHT22;11078;49.872;6.188;2022-08-01T02:46:47;17.40;10.80
21832;DHT22;11078;49.872;6.188;2022-08-01T02:49:15;17.40;11.20
21832;DHT22;11078;49.872;6.188;2022-08-01T02:51:43;17.30;10.80
21832;DHT22;11078;49.872;6.188;2022-08-01T02:54:10;17.30;10.90
21832;DHT22;11078;49.872;6.188;2022-08-01T02:56:37;17.30;10.90
21832;DHT22;11078;49.872;6.188;2022-08-01T02:59:08;17.30;10.90
21832;DHT22;11078;49.872;6.188;2022-08-01T03:01:36;17.20;11.10
21832;DHT22;11078;49.872;6.188;2022-08-01T03:04:04;17.20;11.00
21832;DHT22;11078;49.872;6.188;2022-08-01T03:06:32;17.20;11.30
21832;DHT22;11078;49.872;6.188;2022-08-01T03:08:59;17.10;11.20
21832;DHT22;11078;49.872;6.188;2022-08-01T03:11:26;17.10;11.30
21832;DHT22;11078;49.872;6.188;2022-08-01T03:13:55;17.10;11.30
21832;DHT22;11078;49.872;6.188;2022-08-01T03:16:24;17.10;11.50
21832;DHT22;11078;49.872;6.188;2022-08-01T03:18:53;17.10;11.70
21832;DHT22;11078;49.872;6.188;2022-08-01T03:21:22;17.00;11.40
21832;DHT22;11078;49.872;6.188;2022-08-01T03:23:50;17.00;11.50
21832;DHT22;11078;49.872;6.188;2022-08-01T03:26:28;17.00;11.50
21832;DHT22;11078;49.872;6.188;2022-08-01T03:28:58;17.00;11.60
21832;DHT22;11078;49.872;6.188;2022-08-01T03:31:25;16.90;11.80
21832;DHT22;11078;49.872;6.188;2022-08-01T03:33:52;16.90;11.60
21832;DHT22;11078;49.872;6.188;2022-08-01T03:36:22;16.90;11.50
21832;DHT22;11078;49.872;6.188;2022-08-01T03:38:50;16.80;12.00
21832;DHT22;11078;49.872;6.188;2022-08-01T03:41:20;16.80;11.60
21832;DHT22;11078;49.872;6.188;2022-08-01T03:43:56;16.80;12.00
21832;DHT22;11078;49.872;6.188;2022-08-01T03:46:32;16.70;12.90
21832;DHT22;11078;49.872;6.188;2022-08-01T03:49:03;16.70;12.80
21832;DHT22;11078;49.872;6.188;2022-08-01T03:51:32;16.70;12.10
21832;DHT22;11078;49.872;6.188;2022-08-01T03:54:00;16.70;11.70
21832;DHT22;11078;49.872;6.188;2022-08-01T03:56:27;16.70;11.90
21832;DHT22;11078;49.872;6.188;2022-08-01T03:58:59;16.70;12.00
21832;DHT22;11078;49.872;6.188;2022-08-01T04:01:26;16.70;12.00
21832;DHT22;11078;49.872;6.188;2022-08-01T04:03:53;16.70;11.90
21832;DHT22;11078;49.872;6.188;2022-08-01T04:06:19;16.70;12.00
21832;DHT22;11078;49.872;6.188;2022-08-01T04:08:45;16.70;12.00
21832;DHT22;11078;49.872;6.188;2022-08-01T04:11:23;16.70;12.10
21832;DHT22;11078;49.872;6.188;2022-08-01T04:13:49;16.70;12.10
21832;DHT22;11078;49.872;6.188;2022-08-01T04:16:16;16.70;12.10
21832;DHT22;11078;49.872;6.188;2022-08-01T04:18:42;16.70;12.10
21832;DHT22;11078;49.872;6.188;2022-08-01T04:21:08;16.70;12.10
21832;DHT22;11078;49.872;6.188;2022-08-01T04:23:36;16.70;12.30
21832;DHT22;11078;49.872;6.188;2022-08-01T04:26:04;16.80;12.40
21832;DHT22;11078;49.872;6.188;2022-08-01T04:28:34;16.80;12.40
21832;DHT22;11078;49.872;6.188;2022-08-01T04:31:01;16.80;12.80
21832;DHT22;11078;49.872;6.188;2022-08-01T04:33:29;16.90;12.50
21832;DHT22;11078;49.872;6.188;2022-08-01T04:35:57;17.00;12.50
21832;DHT22;11078;49.872;6.188;2022-08-01T04:38:26;17.10;12.60
21832;DHT22;11078;49.872;6.188;2022-08-01T04:40:54;17.10;12.80
21832;DHT22;11078;49.872;6.188;2022-08-01T04:43:21;17.20;12.60
21832;DHT22;11078;49.872;6.188;2022-08-01T04:45:47;17.30;12.60
21832;DHT22;11078;49.872;6.188;2022-08-01T04:48:17;17.40;12.50
21832;DHT22;11078;49.872;6.188;2022-08-01T04:50:43;17.50;12.70
21832;DHT22;11078;49.872;6.188;2022-08-01T04:53:13;17.50;12.50
21832;DHT22;11078;49.872;6.188;2022-08-01T04:55:43;17.70;13.30
21832;DHT22;11078;49.872;6.188;2022-08-01T04:58:10;17.70;12.50
21832;DHT22;11078;49.872;6.188;2022-08-01T05:00:36;17.80;12.50
21832;DHT22;11078;49.872;6.188;2022-08-01T05:03:02;17.90;12.50
21832;DHT22;11078;49.872;6.188;2022-08-01T05:05:28;17.90;12.40
21832;DHT22;11078;49.872;6.188;2022-08-01T05:07:56;18.00;12.40
21832;DHT22;11078;49.872;6.188;2022-08-01T05:10:22;18.10;12.50
21832;DHT22;11078;49.872;6.188;2022-08-01T05:12:48;18.20;12.50
21832;DHT22;11078;49.872;6.188;2022-08-01T05:15:13;18.30;12.50
21832;DHT22;11078;49.872;6.188;2022-08-01T05:17:39;18.30;12.50
21832;DHT22;11078;49.872;6.188;2022-08-01T05:20:08;18.40;12.50
21832;DHT22;11078;49.872;6.188;2022-08-01T05:22:34;18.50;12.50
21832;DHT22;11078;49.872;6.188;2022-08-01T05:25:00;18.60;12.40
21832;DHT22;11078;49.872;6.188;2022-08-01T05:27:26;18.60;12.50
21832;DHT22;11078;49.872;6.188;2022-08-01T05:29:52;18.70;12.50
21832;DHT22;11078;49.872;6.188;2022-08-01T05:32:18;18.70;12.50
21832;DHT22;11078;49.872;6.188;2022-08-01T05:34:44;18.80;12.40
21832;DHT22;11078;49.872;6.188;2022-08-01T05:37:10;18.80;12.40
21832;DHT22;11078;49.872;6.188;2022-08-01T05:39:36;18.90;12.40
21832;DHT22;11078;49.872;6.188;2022-08-01T05:42:02;19.00;12.40
21832;DHT22;11078;49.872;6.188;2022-08-01T05:44:28;19.10;12.50
21832;DHT22;11078;49.872;6.188;2022-08-01T05:46:54;19.10;12.40
21832;DHT22;11078;49.872;6.188;2022-08-01T05:49:20;19.20;12.40
21832;DHT22;11078;49.872;6.188;2022-08-01T05:51:46;19.20;12.30
21832;DHT22;11078;49.872;6.188;2022-08-01T05:54:12;19.30;12.30
21832;DHT22;11078;49.872;6.188;2022-08-01T05:56:38;19.40;12.30
21832;DHT22;11078;49.872;6.188;2022-08-01T05:59:04;19.40;12.30
21832;DHT22;11078;49.872;6.188;2022-08-01T06:01:30;19.50;12.30
21832;DHT22;11078;49.872;6.188;2022-08-01T06:03:56;19.50;12.30
21832;DHT22;11078;49.872;6.188;2022-08-01T06:06:22;19.60;12.30
21832;DHT22;11078;49.872;6.188;2022-08-01T06:08:48;19.70;12.20
21832;DHT22;11078;49.872;6.188;2022-08-01T06:11:14;19.70;12.20
21832;DHT22;11078;49.872;6.188;2022-08-01T06:13:41;19.80;12.10
21832;DHT22;11078;49.872;6.188;2022-08-01T06:16:07;19.80;12.10
21832;DHT22;11078;49.872;6.188;2022-08-01T06:18:33;19.90;12.20
21832;DHT22;11078;49.872;6.188;2022-08-01T06:20:59;20.00;12.10
21832;DHT22;11078;49.872;6.188;2022-08-01T06:23:25;20.00;12.00
21832;DHT22;11078;49.872;6.188;2022-08-01T06:25:52;20.10;12.10
21832;DHT22;11078;49.872;6.188;2022-08-01T06:28:20;20.10;12.20
21832;DHT22;11078;49.872;6.188;2022-08-01T06:30:46;20.20;12.10
21832;DHT22;11078;49.872;6.188;2022-08-01T06:33:12;20.20;12.00
21832;DHT22;11078;49.872;6.188;2022-08-01T06:35:38;20.30;12.10
21832;DHT22;11078;49.872;6.188;2022-08-01T06:38:04;20.40;12.10
21832;DHT22;11078;49.872;6.188;2022-08-01T06:40:30;20.40;12.00
21832;DHT22;11078;49.872;6.188;2022-08-01T06:42:57;20.50;11.90
21832;DHT22;11078;49.872;6.188;2022-08-01T06:45:23;20.50;11.90
21832;DHT22;11078;49.872;6.188;2022-08-01T06:47:51;20.60;11.80
21832;DHT22;11078;49.872;6.188;2022-08-01T06:50:17;20.70;11.80
21832;DHT22;11078;49.872;6.188;2022-08-01T06:52:43;20.70;11.80
21832;DHT22;11078;49.872;6.188;2022-08-01T06:55:10;20.80;11.80
21832;DHT22;11078;49.872;6.188;2022-08-01T06:57:36;20.80;11.70
21832;DHT22;11078;49.872;6.188;2022-08-01T07:00:06;20.90;11.70
21832;DHT22;11078;49.872;6.188;2022-08-01T07:02:49;21.00;11.90
21832;DHT22;11078;49.872;6.188;2022-08-01T07:05:16;21.00;12.50
21832;DHT22;11078;49.872;6.188;2022-08-01T07:07:42;21.10;11.50
21832;DHT22;11078;49.872;6.188;2022-08-01T07:10:08;21.20;11.40
21832;DHT22;11078;49.872;6.188;2022-08-01T07:12:35;21.20;11.40
21832;DHT22;11078;49.872;6.188;2022-08-01T07:15:05;21.30;11.40
21832;DHT22;11078;49.872;6.188;2022-08-01T07:17:31;21.40;11.60
21832;DHT22;11078;49.872;6.188;2022-08-01T07:19:58;21.40;11.30
21832;DHT22;11078;49.872;6.188;2022-08-01T07:22:24;21.50;11.30
21832;DHT22;11078;49.872;6.188;2022-08-01T07:24:50;21.50;11.20
21832;DHT22;11078;49.872;6.188;2022-08-01T07:27:17;21.50;11.10
21832;DHT22;11078;49.872;6.188;2022-08-01T07:29:43;21.60;11.10
21832;DHT22;11078;49.872;6.188;2022-08-01T07:32:09;21.50;10.90
21832;DHT22;11078;49.872;6.188;2022-08-01T07:34:35;21.60;10.80
21832;DHT22;11078;49.872;6.188;2022-08-01T07:37:01;21.70;10.80
21832;DHT22;11078;49.872;6.188;2022-08-01T07:39:27;21.70;10.80
21832;DHT22;11078;49.872;6.188;2022-08-01T07:42:12;21.70;10.70
21832;DHT22;11078;49.872;6.188;2022-08-01T07:44:38;21.70;10.60
21832;DHT22;11078;49.872;6.188;2022-08-01T07:47:05;21.80;10.60
21832;DHT22;11078;49.872;6.188;2022-08-01T07:49:31;21.80;10.50
21832;DHT22;11078;49.872;6.188;2022-08-01T07:51:57;21.80;10.40
21832;DHT22;11078;49.872;6.188;2022-08-01T07:54:23;21.90;10.30
21832;DHT22;11078;49.872;6.188;2022-08-01T07:56:50;21.90;10.30
21832;DHT22;11078;49.872;6.188;2022-08-01T07:59:17;21.90;10.30
21832;DHT22;11078;49.872;6.188;2022-08-01T08:01:50;21.90;10.20
21832;DHT22;11078;49.872;6.188;2022-08-01T08:04:18;21.90;10.20
21832;DHT22;11078;49.872;6.188;2022-08-01T08:06:44;21.90;10.00
21832;DHT22;11078;49.872;6.188;2022-08-01T08:09:13;22.00;9.90
21832;DHT22;11078;49.872;6.188;2022-08-01T08:11:43;22.00;9.90
21832;DHT22;11078;49.872;6.188;2022-08-01T08:14:09;22.10;10.00
21832;DHT22;11078;49.872;6.188;2022-08-01T08:16:36;22.10;9.80
21832;DHT22;11078;49.872;6.188;2022-08-01T08:19:02;22.10;9.70
21832;DHT22;11078;49.872;6.188;2022-08-01T08:21:29;22.10;9.70
21832;DHT22;11078;49.872;6.188;2022-08-01T08:23:55;22.20;9.60
21832;DHT22;11078;49.872;6.188;2022-08-01T08:26:37;22.10;9.60
21832;DHT22;11078;49.872;6.188;2022-08-01T08:29:03;22.20;9.50
21832;DHT22;11078;49.872;6.188;2022-08-01T08:31:29;22.30;9.60
21832;DHT22;11078;49.872;6.188;2022-08-01T08:33:55;22.30;9.50
21832;DHT22;11078;49.872;6.188;2022-08-01T08:36:21;22.30;9.30
21832;DHT22;11078;49.872;6.188;2022-08-01T08:38:48;22.30;9.20
21832;DHT22;11078;49.872;6.188;2022-08-01T08:41:14;22.40;9.20
21832;DHT22;11078;49.872;6.188;2022-08-01T08:43:41;22.40;9.10
21832;DHT22;11078;49.872;6.188;2022-08-01T08:46:08;22.50;9.10
21832;DHT22;11078;49.872;6.188;2022-08-01T08:48:36;22.50;9.10
21832;DHT22;11078;49.872;6.188;2022-08-01T08:51:03;22.50;9.20
21832;DHT22;11078;49.872;6.188;2022-08-01T08:53:31;22.50;9.00
21832;DHT22;11078;49.872;6.188;2022-08-01T08:55:59;22.60;8.80
21832;DHT22;11078;49.872;6.188;2022-08-01T08:58:26;22.60;8.70
21832;DHT22;11078;49.872;6.188;2022-08-01T09:00:54;22.60;8.60
21832;DHT22;11078;49.872;6.188;2022-08-01T09:03:21;22.70;8.60
21832;DHT22;11078;49.872;6.188;2022-08-01T09:05:47;22.70;8.60
21832;DHT22;11078;49.872;6.188;2022-08-01T09:08:13;22.80;8.40
21832;DHT22;11078;49.872;6.188;2022-08-01T09:10:57;22.80;8.30
21832;DHT22;11078;49.872;6.188;2022-08-01T09:13:24;23.00;8.40
21832;DHT22;11078;49.872;6.188;2022-08-01T09:15:52;23.00;8.10
21832;DHT22;11078;49.872;6.188;2022-08-01T09:18:35;23.10;8.10
21832;DHT22;11078;49.872;6.188;2022-08-01T09:21:19;23.10;7.80
21832;DHT22;11078;49.872;6.188;2022-08-01T09:23:48;23.10;8.00
21832;DHT22;11078;49.872;6.188;2022-08-01T09:26:18;23.20;7.60
21832;DHT22;11078;49.872;6.188;2022-08-01T09:28:47;23.30;7.60
21832;DHT22;11078;49.872;6.188;2022-08-01T09:31:16;23.30;7.30
21832;DHT22;11078;49.872;6.188;2022-08-01T09:33:53;23.40;7.20
21832;DHT22;11078;49.872;6.188;2022-08-01T09:36:22;23.50;7.30
21832;DHT22;11078;49.872;6.188;2022-08-01T09:38:49;23.60;6.90
21832;DHT22;11078;49.872;6.188;2022-08-01T09:41:17;23.80;6.70
21832;DHT22;11078;49.872;6.188;2022-08-01T09:43:53;23.90;6.60
21832;DHT22;11078;49.872;6.188;2022-08-01T09:46:19;24.10;6.30
21832;DHT22;11078;49.872;6.188;2022-08-01T09:49:02;24.30;6.00
21832;DHT22;11078;49.872;6.188;2022-08-01T09:51:32;24.40;5.30
21832;DHT22;11078;49.872;6.188;2022-08-01T09:53:59;24.50;5.60
21832;DHT22;11078;49.872;6.188;2022-08-01T09:56:26;24.60;5.50
21832;DHT22;11078;49.872;6.188;2022-08-01T09:59:01;24.80;5.10
21832;DHT22;11078;49.872;6.188;2022-08-01T10:01:39;24.80;4.80
21832;DHT22;11078;49.872;6.188;2022-08-01T10:04:13;24.80;4.80
21832;DHT22;11078;49.872;6.188;2022-08-01T10:06:40;24.90;5.40
21832;DHT22;11078;49.872;6.188;2022-08-01T10:09:09;24.90;4.60
21832;DHT22;11078;49.872;6.188;2022-08-01T10:11:36;25.00;4.40
21832;DHT22;11078;49.872;6.188;2022-08-01T10:14:05;25.20;4.30
21832;DHT22;11078;49.872;6.188;2022-08-01T10:16:34;25.40;4.00
21832;DHT22;11078;49.872;6.188;2022-08-01T10:19:02;25.60;3.40
21832;DHT22;11078;49.872;6.188;2022-08-01T10:21:32;25.70;3.30
21832;DHT22;11078;49.872;6.188;2022-08-01T10:24:02;25.70;2.90
21832;DHT22;11078;49.872;6.188;2022-08-01T10:26:32;25.80;2.50
21832;DHT22;11078;49.872;6.188;2022-08-01T10:28:59;25.80;2.60
21832;DHT22;11078;49.872;6.188;2022-08-01T10:31:26;26.00;3.30
21832;DHT22;11078;49.872;6.188;2022-08-01T10:33:57;26.20;2.30
21832;DHT22;11078;49.872;6.188;2022-08-01T10:36:24;26.30;1.70
21832;DHT22;11078;49.872;6.188;2022-08-01T10:38:52;26.50;1.50
21832;DHT22;11078;49.872;6.188;2022-08-01T10:41:19;26.60;1.40
21832;DHT22;11078;49.872;6.188;2022-08-01T10:43:46;26.70;1.20
21832;DHT22;11078;49.872;6.188;2022-08-01T10:46:19;26.80;1.00
21832;DHT22;11078;49.872;6.188;2022-08-01T10:48:55;27.00;1.00
21832;DHT22;11078;49.872;6.188;2022-08-01T10:51:23;27.00;1.00
21832;DHT22;11078;49.872;6.188;2022-08-01T10:53:52;26.90;1.00
21832;DHT22;11078;49.872;6.188;2022-08-01T10:56:19;26.80;1.00
21832;DHT22;11078;49.872;6.188;2022-08-01T10:58:47;26.70;1.00
21832;DHT22;11078;49.872;6.188;2022-08-01T11:01:20;26.60;1.00
21832;DHT22;11078;49.872;6.188;2022-08-01T11:04:04;26.60;1.00
21832;DHT22;11078;49.872;6.188;2022-08-01T11:06:54;26.70;1.00
21832;DHT22;11078;49.872;6.188;2022-08-01T11:09:31;26.60;1.00
21832;DHT22;11078;49.872;6.188;2022-08-01T11:12:01;26.40;1.00
21832;DHT22;11078;49.872;6.188;2022-08-01T11:14:30;26.30;1.00
21832;DHT22;11078;49.872;6.188;2022-08-01T11:20:09;26.10;1.00
21832;DHT22;11078;49.872;6.188;2022-08-01T11:28:19;26.00;1.20
21832;DHT22;11078;49.872;6.188;2022-08-01T11:30:47;26.10;1.00
21832;DHT22;11078;49.872;6.188;2022-08-01T11:33:15;26.20;1.00
21832;DHT22;11078;49.872;6.188;2022-08-01T11:36:17;26.30;1.00
21832;DHT22;11078;49.872;6.188;2022-08-01T11:38:47;26.40;1.00
21832;DHT22;11078;49.872;6.188;2022-08-01T11:41:29;26.50;1.00
21832;DHT22;11078;49.872;6.188;2022-08-01T11:44:05;26.70;1.00
21832;DHT22;11078;49.872;6.188;2022-08-01T11:46:47;26.90;1.00
21832;DHT22;11078;49.872;6.188;2022-08-01T11:52:30;27.20;1.00
21832;DHT22;11078;49.872;6.188;2022-08-01T11:55:05;27.50;1.00
21832;DHT22;11078;49.872;6.188;2022-08-01T11:57:34;27.70;1.00
21832;DHT22;11078;49.872;6.188;2022-08-01T12:00:05;27.90;1.00
21832;DHT22;11078;49.872;6.188;2022-08-01T12:02:36;28.00;1.00
21832;DHT22;11078;49.872;6.188;2022-08-01T12:05:08;28.10;1.00
21832;DHT22;11078;49.872;6.188;2022-08-01T12:07:36;28.20;1.00
21832;DHT22;11078;49.872;6.188;2022-08-01T12:10:05;28.30;1.00
21832;DHT22;11078;49.872;6.188;2022-08-01T12:12:33;28.30;1.00
21832;DHT22;11078;49.872;6.188;2022-08-01T12:15:02;28.40;1.00
21832;DHT22;11078;49.872;6.188;2022-08-01T12:17:32;28.40;1.00
21832;DHT22;11078;49.872;6.188;2022-08-01T12:19:58;28.70;1.00
21832;DHT22;11078;49.872;6.188;2022-08-01T12:22:25;28.80;1.00
21832;DHT22;11078;49.872;6.188;2022-08-01T12:24:51;28.80;1.00
21832;DHT22;11078;49.872;6.188;2022-08-01T12:27:27;29.00;1.00
21832;DHT22;11078;49.872;6.188;2022-08-01T12:29:55;29.00;1.00
21832;DHT22;11078;49.872;6.188;2022-08-01T12:32:25;29.10;1.00
21832;DHT22;11078;49.872;6.188;2022-08-01T12:34:55;29.00;1.00
21832;DHT22;11078;49.872;6.188;2022-08-01T12:37:22;29.00;1.00
21832;DHT22;11078;49.872;6.188;2022-08-01T12:39:49;29.10;1.00
21832;DHT22;11078;49.872;6.188;2022-08-01T12:42:15;29.10;1.00
21832;DHT22;11078;49.872;6.188;2022-08-01T12:44:44;29.20;1.00
21832;DHT22;11078;49.872;6.188;2022-08-01T12:47:14;29.20;1.00
21832;DHT22;11078;49.872;6.188;2022-08-01T12:49:42;29.20;1.00
21832;DHT22;11078;49.872;6.188;2022-08-01T12:52:11;29.30;1.00
21832;DHT22;11078;49.872;6.188;2022-08-01T12:55:02;29.30;1.00
21832;DHT22;11078;49.872;6.188;2022-08-01T12:57:31;29.20;1.00
21832;DHT22;11078;49.872;6.188;2022-08-01T13:00:14;29.20;1.00
21832;DHT22;11078;49.872;6.188;2022-08-01T13:02:41;29.30;1.00
21832;DHT22;11078;49.872;6.188;2022-08-01T13:05:10;29.40;1.00
21832;DHT22;11078;49.872;6.188;2022-08-01T13:07:40;29.40;1.00
21832;DHT22;11078;49.872;6.188;2022-08-01T13:10:07;29.40;1.00
21832;DHT22;11078;49.872;6.188;2022-08-01T13:12:33;29.30;1.00
21832;DHT22;11078;49.872;6.188;2022-08-01T13:15:15;29.30;1.00
21832;DHT22;11078;49.872;6.188;2022-08-01T13:17:41;29.30;1.00
21832;DHT22;11078;49.872;6.188;2022-08-01T13:20:07;29.20;1.00
21832;DHT22;11078;49.872;6.188;2022-08-01T13:22:35;29.10;1.00
21832;DHT22;11078;49.872;6.188;2022-08-01T13:25:11;29.00;1.00
21832;DHT22;11078;49.872;6.188;2022-08-01T13:27:37;29.20;1.00
21832;DHT22;11078;49.872;6.188;2022-08-01T13:30:20;29.30;1.00
21832;DHT22;11078;49.872;6.188;2022-08-01T13:33:03;29.50;1.00
21832;DHT22;11078;49.872;6.188;2022-08-01T13:35:29;29.50;1.00
21832;DHT22;11078;49.872;6.188;2022-08-01T13:37:55;29.50;1.00
21832;DHT22;11078;49.872;6.188;2022-08-01T13:40:25;29.40;1.00
21832;DHT22;11078;49.872;6.188;2022-08-01T13:42:52;29.50;1.00
21832;DHT22;11078;49.872;6.188;2022-08-01T13:45:19;29.50;1.00
21832;DHT22;11078;49.872;6.188;2022-08-01T13:47:45;29.40;1.00
21832;DHT22;11078;49.872;6.188;2022-08-01T13:50:11;29.40;1.00
21832;DHT22;11078;49.872;6.188;2022-08-01T13:52:37;29.30;1.00
21832;DHT22;11078;49.872;6.188;2022-08-01T13:55:03;29.20;1.00
21832;DHT22;11078;49.872;6.188;2022-08-01T13:57:30;29.30;1.00
21832;DHT22;11078;49.872;6.188;2022-08-01T13:59:56;29.30;1.00
21832;DHT22;11078;49.872;6.188;2022-08-01T14:02:26;29.40;1.00
21832;DHT22;11078;49.872;6.188;2022-08-01T14:04:53;29.30;1.00
21832;DHT22;11078;49.872;6.188;2022-08-01T14:07:21;29.30;1.00
21832;DHT22;11078;49.872;6.188;2022-08-01T14:09:47;29.40;1.00
21832;DHT22;11078;49.872;6.188;2022-08-01T14:12:13;29.40;1.00
21832;DHT22;11078;49.872;6.188;2022-08-01T14:14:39;29.50;1.00
21832;DHT22;11078;49.872;6.188;2022-08-01T14:17:05;29.70;1.00
21832;DHT22;11078;49.872;6.188;2022-08-01T14:19:31;29.60;1.00
21832;DHT22;11078;49.872;6.188;2022-08-01T14:21:58;29.60;1.00
21832;DHT22;11078;49.872;6.188;2022-08-01T14:24:24;29.60;1.00
21832;DHT22;11078;49.872;6.188;2022-08-01T14:26:52;29.50;1.00
21832;DHT22;11078;49.872;6.188;2022-08-01T14:29:17;29.40;1.00
21832;DHT22;11078;49.872;6.188;2022-08-01T14:34:28;29.50;1.00
21832;DHT22;11078;49.872;6.188;2022-08-01T14:36:54;29.60;1.00
21832;DHT22;11078;49.872;6.188;2022-08-01T14:39:20;29.50;1.00
21832;DHT22;11078;49.872;6.188;2022-08-01T14:41:46;29.40;1.00
21832;DHT22;11078;49.872;6.188;2022-08-01T14:44:12;29.30;1.00
21832;DHT22;11078;49.872;6.188;2022-08-01T14:46:38;29.20;1.00
21832;DHT22;11078;49.872;6.188;2022-08-01T14:49:05;29.10;1.00
21832;DHT22;11078;49.872;6.188;2022-08-01T14:51:31;29.00;1.00
21832;DHT22;11078;49.872;6.188;2022-08-01T14:54:00;28.90;1.00
21832;DHT22;11078;49.872;6.188;2022-08-01T14:56:29;28.70;1.00
21832;DHT22;11078;49.872;6.188;2022-08-01T14:58:57;28.50;1.00
21832;DHT22;11078;49.872;6.188;2022-08-01T15:01:23;28.40;1.00
21832;DHT22;11078;49.872;6.188;2022-08-01T15:03:51;28.30;1.00
21832;DHT22;11078;49.872;6.188;2022-08-01T15:06:18;28.10;1.00
21832;DHT22;11078;49.872;6.188;2022-08-01T15:08:45;28.00;1.00
21832;DHT22;11078;49.872;6.188;2022-08-01T15:11:11;28.00;1.00
21832;DHT22;11078;49.872;6.188;2022-08-01T15:13:38;27.90;1.00
21832;DHT22;11078;49.872;6.188;2022-08-01T15:16:05;27.80;1.00
21832;DHT22;11078;49.872;6.188;2022-08-01T15:18:31;27.60;1.00
21832;DHT22;11078;49.872;6.188;2022-08-01T15:20:57;27.50;1.00
21832;DHT22;11078;49.872;6.188;2022-08-01T15:23:23;27.40;1.10
21832;DHT22;11078;49.872;6.188;2022-08-01T15:25:49;27.30;1.30
21832;DHT22;11078;49.872;6.188;2022-08-01T15:28:26;27.20;1.80
21832;DHT22;11078;49.872;6.188;2022-08-01T15:30:53;27.10;4.80
21832;DHT22;11078;49.872;6.188;2022-08-01T15:33:20;27.10;2.60
21832;DHT22;11078;49.872;6.188;2022-08-01T15:35:47;27.00;2.60
21832;DHT22;11078;49.872;6.188;2022-08-01T15:38:14;27.10;3.00
21832;DHT22;11078;49.872;6.188;2022-08-01T15:40:43;27.00;3.00
21832;DHT22;11078;49.872;6.188;2022-08-01T15:43:11;26.90;2.60
21832;DHT22;11078;49.872;6.188;2022-08-01T15:45:37;26.80;2.80
21832;DHT22;11078;49.872;6.188;2022-08-01T15:48:04;26.90;2.90
21832;DHT22;11078;49.872;6.188;2022-08-01T15:50:30;26.90;3.10
21832;DHT22;11078;49.872;6.188;2022-08-01T15:52:56;26.90;3.30
21832;DHT22;11078;49.872;6.188;2022-08-01T15:55:23;27.00;3.60
21832;DHT22;11078;49.872;6.188;2022-08-01T15:57:49;27.00;3.80
21832;DHT22;11078;49.872;6.188;2022-08-01T16:00:15;27.00;3.90
21832;DHT22;11078;49.872;6.188;2022-08-01T16:02:43;27.00;3.80
21832;DHT22;11078;49.872;6.188;2022-08-01T16:05:10;27.00;4.20
21832;DHT22;11078;49.872;6.188;2022-08-01T16:07:36;26.90;3.00
21832;DHT22;11078;49.872;6.188;2022-08-01T16:10:03;27.00;3.20
21832;DHT22;11078;49.872;6.188;2022-08-01T16:12:29;26.90;2.90